createdAt,value
2022-08-20T00:01:01.695Z,18.05
2022-08-20T00:03:33.253Z,18.04
2022-08-20T00:06:03.076Z,17.92
2022-08-20T00:08:32.114Z,17.91
2022-08-20T00:11:01.500Z,17.82
2022-08-20T00:13:32.745Z,17.87
2022-08-20T00:16:00.832Z,17.84
2022-08-20T00:18:28.879Z,17.86
2022-08-20T00:20:57.615Z,17.79
2022-08-20T00:23:26.155Z,17.83
2022-08-20T00:25:54.349Z,17.85
2022-08-20T00:28:22.342Z,17.80
2022-08-20T00:30:51.907Z,17.82
2022-08-20T00:33:22.526Z,17.81
2022-08-20T00:35:53.196Z,17.85
2022-08-20T00:38:21.807Z,17.82
2022-08-20T00:40:52.531Z,17.89
2022-08-20T00:43:31.315Z,17.95
2022-08-20T00:46:01.958Z,17.94
2022-08-20T00:48:33.246Z,17.85
2022-08-20T00:51:06.822Z,17.77
2022-08-20T00:53:36.680Z,17.58
2022-08-20T00:56:05.881Z,17.71
2022-08-20T00:58:34.488Z,17.68
2022-08-20T01:01:04.604Z,17.62
2022-08-20T01:03:33.288Z,17.55
2022-08-20T01:06:01.645Z,17.52
2022-08-20T01:08:29.751Z,17.50
2022-08-20T01:11:10.030Z,17.44
2022-08-20T01:13:39.669Z,17.55
2022-08-20T01:16:17.574Z,17.50
2022-08-20T01:18:48.282Z,17.41
2022-08-20T01:21:18.963Z,17.23
2022-08-20T01:23:51.169Z,17.42
2022-08-20T01:26:22.894Z,17.42
2022-08-20T01:28:54.063Z,17.55
2022-08-20T01:31:24.001Z,17.67
2022-08-20T01:33:53.897Z,17.74
2022-08-20T01:36:26.129Z,17.81
2022-08-20T01:38:54.929Z,17.86
2022-08-20T01:41:43.794Z,17.90
2022-08-20T01:44:17.007Z,17.92
2022-08-20T01:46:49.908Z,17.94
2022-08-20T01:49:23.096Z,17.97
2022-08-20T01:51:52.980Z,17.82
2022-08-20T01:54:21.723Z,17.90
2022-08-20T01:56:57.165Z,17.95
2022-08-20T01:59:25.651Z,18.00
2022-08-20T02:01:54.169Z,18.03
2022-08-20T02:04:22.566Z,18.01
2022-08-20T02:06:56.325Z,18.02
2022-08-20T02:09:26.200Z,18.04
2022-08-20T02:11:55.537Z,18.08
2022-08-20T02:14:23.607Z,18.08
2022-08-20T02:16:55.115Z,18.07
2022-08-20T02:19:27.208Z,18.07
2022-08-20T02:21:58.681Z,18.04
2022-08-20T02:24:26.739Z,18.09
2022-08-20T02:26:56.202Z,18.10
2022-08-20T02:29:26.162Z,18.11
2022-08-20T02:32:32.270Z,18.13
2022-08-20T02:34:43.234Z,18.13
2022-08-20T02:37:11.734Z,18.11
2022-08-20T02:39:41.029Z,18.00
2022-08-20T02:42:12.205Z,17.98
2022-08-20T02:44:40.754Z,17.95
2022-08-20T02:47:09.168Z,18.03
2022-08-20T02:49:37.204Z,17.93
2022-08-20T02:52:05.665Z,17.90
2022-08-20T02:54:33.765Z,17.87
2022-08-20T02:57:03.686Z,17.91
2022-08-20T02:59:33.668Z,17.99
2022-08-20T03:02:02.233Z,17.92
2022-08-20T03:04:30.590Z,17.75
2022-08-20T03:06:58.744Z,17.88
2022-08-20T03:09:27.012Z,17.98
2022-08-20T03:11:55.077Z,18.05
2022-08-20T03:14:23.108Z,18.01
2022-08-20T03:16:52.801Z,18.00
2022-08-20T03:19:20.964Z,18.06
2022-08-20T03:21:48.962Z,18.08
2022-08-20T03:24:17.017Z,18.12
2022-08-20T03:26:45.032Z,18.12
2022-08-20T03:29:13.600Z,18.15
2022-08-20T03:31:41.738Z,18.11
2022-08-20T03:34:11.088Z,18.15
2022-08-20T03:36:39.387Z,18.19
2022-08-20T03:39:11.652Z,18.18
2022-08-20T03:41:39.862Z,18.21
2022-08-20T03:44:07.960Z,18.23
2022-08-20T03:46:36.125Z,18.22
2022-08-20T03:49:04.539Z,18.21
2022-08-20T03:51:57.913Z,18.20
2022-08-20T03:54:22.529Z,18.15
2022-08-20T03:56:50.497Z,18.01
2022-08-20T03:59:18.641Z,17.92
2022-08-20T04:01:47.133Z,17.87
2022-08-20T04:04:15.541Z,17.94
2022-08-20T04:06:47.529Z,17.82
2022-08-20T04:09:15.890Z,17.84
2022-08-20T04:11:43.979Z,17.97
2022-08-20T04:14:18.460Z,18.01
2022-08-20T04:16:48.923Z,18.06
2022-08-20T04:19:17.507Z,18.05
2022-08-20T04:21:48.442Z,18.08
2022-08-20T04:24:27.508Z,18.12
2022-08-20T04:27:00.921Z,18.15
2022-08-20T04:29:32.043Z,18.18
2022-08-20T04:32:02.796Z,18.17
2022-08-20T04:34:34.699Z,18.06
2022-08-20T04:37:04.408Z,18.08
2022-08-20T04:39:32.483Z,18.04
2022-08-20T04:41:59.750Z,18.00
2022-08-20T04:44:28.115Z,18.06
2022-08-20T04:46:56.141Z,18.04
2022-08-20T04:49:26.405Z,18.10
2022-08-20T04:51:55.717Z,18.08
2022-08-20T04:54:25.033Z,18.09
2022-08-20T04:56:53.023Z,18.02
2022-08-20T04:59:21.041Z,18.11
2022-08-20T05:01:49.008Z,18.11
2022-08-20T05:04:16.976Z,18.12
2022-08-20T05:06:45.306Z,18.09
2022-08-20T05:09:13.249Z,18.06
2022-08-20T05:11:42.616Z,18.05
2022-08-20T05:14:11.128Z,18.11
2022-08-20T05:16:39.769Z,18.19
2022-08-20T05:19:08.988Z,18.18
2022-08-20T05:21:37.486Z,18.12
2022-08-20T05:24:05.985Z,18.03
2022-08-20T05:26:34.394Z,18.03
2022-08-20T05:29:06.741Z,18.03
2022-08-20T05:31:35.215Z,17.98
2022-08-20T05:34:03.837Z,17.94
2022-08-20T05:36:31.865Z,17.96
2022-08-20T05:39:00.079Z,17.87
2022-08-20T05:41:30.502Z,17.77
2022-08-20T05:44:01.371Z,17.84
2022-08-20T05:46:32.407Z,17.85
2022-08-20T05:49:01.823Z,17.92
2022-08-20T05:51:30.884Z,17.90
2022-08-20T05:53:59.851Z,17.91
2022-08-20T05:56:31.157Z,17.86
2022-08-20T05:59:02.599Z,17.85
2022-08-20T06:01:32.803Z,17.88
2022-08-20T06:04:18.575Z,17.85
2022-08-20T06:06:47.534Z,17.84
2022-08-20T06:09:30.720Z,17.86
2022-08-20T06:12:00.417Z,17.78
2022-08-20T06:14:28.400Z,17.71
2022-08-20T06:17:03.661Z,17.81
2022-08-20T06:19:33.348Z,17.99
2022-08-20T06:22:01.470Z,17.86
2022-08-20T06:24:29.609Z,17.99
2022-08-20T06:26:58.872Z,17.99
2022-08-20T06:29:27.735Z,17.96
2022-08-20T06:31:57.560Z,18.01
2022-08-20T06:34:28.409Z,18.06
2022-08-20T06:36:59.276Z,18.10
2022-08-20T06:39:29.109Z,18.18
2022-08-20T06:41:58.604Z,18.25
2022-08-20T06:44:28.541Z,18.18
2022-08-20T06:47:01.510Z,18.15
2022-08-20T06:49:34.185Z,18.24
2022-08-20T06:52:04.462Z,18.25
2022-08-20T06:54:34.277Z,18.30
2022-08-20T06:57:02.589Z,18.31
2022-08-20T06:59:30.610Z,18.30
2022-08-20T07:02:00.103Z,18.41
2022-08-20T07:04:28.183Z,18.48
2022-08-20T07:06:57.707Z,18.47
2022-08-20T07:09:27.517Z,18.56
2022-08-20T07:11:56.167Z,18.44
2022-08-20T07:14:24.244Z,18.32
2022-08-20T07:16:52.273Z,18.26
2022-08-20T07:19:21.759Z,18.26
2022-08-20T07:21:50.751Z,18.33
2022-08-20T07:24:19.297Z,18.32
2022-08-20T07:26:47.275Z,18.27
2022-08-20T07:29:15.267Z,18.42
2022-08-20T07:31:59.953Z,18.43
2022-08-20T07:34:31.376Z,18.50
2022-08-20T07:37:00.273Z,18.60
2022-08-20T07:39:28.536Z,18.60
2022-08-20T07:42:03.985Z,18.59
2022-08-20T07:44:31.984Z,18.50
2022-08-20T07:47:00.344Z,18.58
2022-08-20T07:49:30.026Z,18.51
2022-08-20T07:51:58.008Z,18.59
2022-08-20T07:54:27.441Z,18.60
2022-08-20T07:57:02.494Z,18.60
2022-08-20T07:59:30.993Z,18.65
2022-08-20T08:01:59.477Z,18.77
2022-08-20T08:04:28.789Z,18.80
2022-08-20T08:07:00.088Z,18.67
2022-08-20T08:09:28.818Z,18.73
2022-08-20T08:11:59.078Z,18.54
2022-08-20T08:14:29.376Z,18.56
2022-08-20T08:16:59.172Z,18.59
2022-08-20T08:19:34.375Z,18.55
2022-08-20T08:22:02.339Z,18.47
2022-08-20T08:24:30.360Z,18.44
2022-08-20T08:26:58.317Z,18.33
2022-08-20T08:29:26.610Z,18.25
2022-08-20T08:31:54.584Z,18.31
2022-08-20T08:34:24.979Z,18.33
2022-08-20T08:36:54.476Z,18.26
2022-08-20T08:39:24.101Z,18.28
2022-08-20T08:42:03.021Z,18.32
2022-08-20T08:44:35.879Z,18.14
2022-08-20T08:47:13.777Z,18.27
2022-08-20T08:49:41.766Z,18.36
2022-08-20T08:52:14.732Z,18.29
2022-08-20T08:54:47.305Z,17.98
2022-08-20T08:57:15.662Z,18.11
2022-08-20T08:59:48.769Z,18.16
2022-08-20T09:02:31.951Z,18.08
2022-08-20T09:05:02.148Z,18.10
2022-08-20T09:07:33.202Z,18.18
2022-08-20T09:10:02.644Z,18.05
2022-08-20T09:12:30.876Z,18.02
2022-08-20T09:14:58.909Z,18.14
2022-08-20T09:17:26.862Z,18.23
2022-08-20T09:19:54.893Z,18.15
2022-08-20T09:22:25.961Z,17.95
2022-08-20T09:24:56.266Z,18.03
2022-08-20T09:27:24.199Z,18.06
2022-08-20T09:29:53.419Z,18.11
2022-08-20T09:32:24.959Z,18.13
2022-08-20T09:34:56.817Z,18.16
2022-08-20T09:37:26.474Z,18.18
2022-08-20T09:39:56.421Z,18.29
2022-08-20T09:42:26.603Z,18.37
2022-08-20T09:44:54.833Z,18.34
2022-08-20T09:47:22.860Z,18.35
2022-08-20T09:49:50.823Z,18.41
2022-08-20T09:52:22.460Z,18.38
2022-08-20T09:54:52.052Z,18.30
2022-08-20T09:57:21.682Z,18.32
2022-08-20T09:59:53.055Z,18.41
2022-08-20T10:02:21.122Z,18.36
2022-08-20T10:04:49.092Z,18.48
2022-08-20T10:07:17.056Z,18.50
2022-08-20T10:09:45.114Z,18.54
2022-08-20T10:12:13.359Z,18.37
2022-08-20T10:14:42.700Z,18.23
2022-08-20T10:17:10.854Z,18.35
2022-08-20T10:19:38.985Z,18.22
2022-08-20T10:22:07.018Z,18.35
2022-08-20T10:24:35.558Z,18.24
2022-08-20T10:27:04.005Z,18.35
2022-08-20T10:29:32.738Z,18.48
2022-08-20T10:32:09.897Z,18.40
2022-08-20T10:34:37.837Z,18.39
2022-08-20T10:37:05.818Z,18.22
2022-08-20T10:39:33.845Z,18.37
2022-08-20T10:42:02.099Z,18.42
2022-08-20T10:44:30.059Z,18.40
2022-08-20T10:46:58.046Z,18.39
2022-08-20T10:49:28.033Z,18.34
2022-08-20T10:51:56.516Z,18.46
2022-08-20T10:54:25.287Z,18.38
2022-08-20T10:56:53.196Z,18.35
2022-08-20T10:59:21.160Z,18.39
2022-08-20T11:01:49.760Z,18.46
2022-08-20T11:04:17.734Z,18.39
2022-08-20T11:06:47.292Z,18.44
2022-08-20T11:09:15.191Z,18.44
2022-08-20T11:11:43.135Z,18.64
2022-08-20T11:14:12.237Z,18.74
2022-08-20T11:16:40.211Z,18.81
2022-08-20T11:19:08.167Z,18.73
2022-08-20T11:21:36.138Z,18.68
2022-08-20T11:24:05.956Z,18.72
2022-08-20T11:26:33.962Z,18.85
2022-08-20T11:29:03.153Z,18.88
2022-08-20T11:31:31.106Z,18.98
2022-08-20T11:33:59.112Z,18.95
2022-08-20T11:36:27.098Z,19.01
2022-08-20T11:38:55.121Z,19.07
2022-08-20T11:41:24.503Z,19.15
2022-08-20T11:44:17.489Z,19.16
2022-08-20T11:46:40.440Z,19.17
2022-08-20T11:49:08.540Z,19.23
2022-08-20T11:51:49.627Z,19.28
2022-08-20T11:54:18.424Z,19.33
2022-08-20T11:56:48.152Z,19.35
2022-08-20T11:59:16.612Z,19.40
2022-08-20T12:01:49.918Z,19.43
2022-08-20T12:04:33.554Z,19.47
2022-08-20T12:07:10.214Z,19.49
2022-08-20T12:09:41.996Z,19.49
2022-08-20T12:12:22.318Z,19.49
2022-08-20T12:14:50.782Z,19.50
2022-08-20T12:17:23.528Z,19.50
2022-08-20T12:19:53.393Z,19.50
2022-08-20T12:22:25.145Z,19.51
2022-08-20T12:24:54.119Z,19.50
2022-08-20T12:27:27.766Z,19.52
2022-08-20T12:29:58.111Z,19.41
2022-08-20T12:32:28.636Z,19.47
2022-08-20T12:34:57.175Z,19.43
2022-08-20T12:37:27.266Z,19.50
2022-08-20T12:39:57.153Z,19.50
2022-08-20T12:42:27.615Z,19.49
2022-08-20T12:44:56.030Z,19.49
2022-08-20T12:47:25.590Z,19.48
2022-08-20T12:49:55.209Z,19.48
2022-08-20T12:52:24.476Z,19.48
2022-08-20T12:54:52.853Z,19.50
2022-08-20T12:57:28.637Z,19.52
2022-08-20T12:59:57.400Z,19.51
2022-08-20T13:02:27.489Z,19.52
2022-08-20T13:04:55.799Z,19.55
2022-08-20T13:07:26.315Z,19.54
2022-08-20T13:09:55.839Z,19.62
2022-08-20T13:12:24.932Z,19.67
2022-08-20T13:14:54.379Z,19.68
2022-08-20T13:17:37.981Z,19.73
2022-08-20T13:20:09.703Z,19.73
2022-08-20T13:22:37.899Z,19.79
2022-08-20T13:25:07.311Z,19.83
2022-08-20T13:27:38.314Z,19.83
2022-08-20T13:30:09.863Z,19.80
2022-08-20T13:32:37.939Z,19.83
2022-08-20T13:35:06.817Z,19.90
2022-08-20T13:37:35.140Z,19.94
2022-08-20T13:40:03.574Z,19.95
2022-08-20T13:42:32.053Z,20.02
2022-08-20T13:45:00.024Z,20.07
2022-08-20T13:47:32.428Z,20.12
2022-08-20T13:50:02.005Z,20.22
2022-08-20T13:52:30.024Z,20.26
2022-08-20T13:54:58.870Z,20.31
2022-08-20T13:57:27.670Z,20.32
2022-08-20T13:59:57.464Z,20.35
2022-08-20T14:02:26.362Z,20.37
2022-08-20T14:04:56.076Z,20.27
2022-08-20T14:07:28.744Z,20.38
2022-08-20T14:10:01.122Z,20.45
2022-08-20T14:12:30.885Z,20.44
2022-08-20T14:14:59.380Z,20.53
2022-08-20T14:17:30.187Z,20.58
2022-08-20T14:20:02.019Z,20.61
2022-08-20T14:22:31.527Z,20.64
2022-08-20T14:25:02.952Z,20.71
2022-08-20T14:27:32.649Z,20.67
2022-08-20T14:30:01.122Z,20.73
2022-08-20T14:32:29.240Z,20.81
2022-08-20T14:34:59.324Z,20.82
2022-08-20T14:37:32.865Z,20.85
2022-08-20T14:40:02.984Z,20.82
2022-08-20T14:42:31.573Z,20.85
2022-08-20T14:45:02.215Z,20.89
2022-08-20T14:47:32.081Z,20.88
2022-08-20T14:50:04.731Z,20.91
2022-08-20T14:52:36.550Z,20.91
2022-08-20T14:55:05.702Z,20.87
2022-08-20T14:57:34.247Z,20.81
2022-08-20T15:00:02.437Z,20.58
2022-08-20T15:02:31.094Z,20.59
2022-08-20T15:04:59.098Z,20.65
2022-08-20T15:07:29.070Z,20.73
2022-08-20T15:10:00.405Z,20.83
2022-08-20T15:12:28.900Z,20.89
2022-08-20T15:14:59.664Z,20.93
2022-08-20T15:17:29.539Z,20.89
2022-08-20T15:19:58.227Z,20.76
2022-08-20T15:22:26.513Z,20.77
2022-08-20T15:24:57.604Z,20.60
2022-08-20T15:27:27.516Z,20.60
2022-08-20T15:29:55.621Z,20.59
2022-08-20T15:32:23.733Z,20.50
2022-08-20T15:34:51.788Z,20.20
2022-08-20T15:37:21.788Z,20.36
2022-08-20T15:39:50.812Z,20.40
2022-08-20T15:42:20.347Z,20.28
2022-08-20T15:44:49.994Z,20.15
2022-08-20T15:47:24.412Z,19.92
2022-08-20T15:49:55.675Z,19.97
2022-08-20T15:52:25.061Z,19.66
2022-08-20T15:54:54.838Z,19.82
2022-08-20T15:57:38.360Z,19.88
2022-08-20T16:00:13.194Z,19.56
2022-08-20T16:03:14.292Z,19.44
2022-08-20T16:05:49.703Z,19.39
2022-08-20T16:08:26.470Z,19.34
2022-08-20T16:11:00.725Z,19.52
2022-08-20T16:13:33.319Z,19.56
2022-08-20T16:16:04.016Z,19.64
2022-08-20T16:18:35.288Z,19.61
2022-08-20T16:21:09.269Z,19.67
2022-08-20T16:23:39.526Z,19.73
2022-08-20T16:26:17.545Z,19.83
2022-08-20T16:28:53.573Z,19.87
2022-08-20T16:31:26.612Z,19.88
2022-08-20T16:34:02.095Z,19.89
2022-08-20T16:36:36.615Z,19.90
2022-08-20T16:39:06.530Z,19.89
2022-08-20T16:41:39.010Z,19.90
2022-08-20T16:44:13.645Z,19.85
2022-08-20T16:46:47.283Z,19.85
2022-08-20T16:49:15.599Z,19.85
2022-08-20T16:51:49.436Z,19.84
2022-08-20T16:54:28.496Z,19.81
2022-08-20T16:57:01.311Z,19.79
2022-08-20T16:59:29.465Z,19.80
2022-08-20T17:02:10.520Z,19.79
2022-08-20T17:04:50.447Z,19.78
2022-08-20T17:07:33.443Z,19.78
2022-08-20T17:10:17.473Z,19.77
2022-08-20T17:12:45.523Z,19.76
2022-08-20T17:15:21.816Z,19.75
2022-08-20T17:17:51.117Z,19.71
2022-08-20T17:20:20.681Z,19.69
2022-08-20T17:22:52.234Z,19.67
2022-08-20T17:25:23.067Z,19.63
2022-08-20T17:27:51.085Z,19.61
2022-08-20T17:30:24.549Z,19.54
2022-08-20T17:32:58.911Z,19.50
2022-08-20T17:35:33.506Z,19.48
2022-08-20T17:38:03.057Z,19.45
2022-08-20T17:40:35.657Z,19.44
2022-08-20T17:43:06.391Z,19.34
2022-08-20T17:45:39.736Z,19.29
2022-08-20T17:48:17.133Z,19.16
2022-08-20T17:50:45.578Z,18.99
2022-08-20T17:53:23.392Z,18.94
2022-08-20T17:55:56.304Z,18.64
2022-08-20T17:58:35.183Z,18.63
2022-08-20T18:01:03.175Z,18.58
2022-08-20T18:03:34.913Z,18.53
2022-08-20T18:06:04.757Z,18.68
2022-08-20T18:08:39.023Z,18.69
2022-08-20T18:11:14.857Z,18.59
2022-08-20T18:13:53.465Z,18.66
2022-08-20T18:16:27.961Z,18.56
2022-08-20T18:18:59.944Z,18.68
2022-08-20T18:21:54.377Z,18.76
2022-08-20T18:24:27.738Z,18.82
2022-08-20T18:27:00.019Z,18.81
2022-08-20T18:29:31.783Z,18.84
2022-08-20T18:32:01.510Z,18.82
2022-08-20T18:34:39.104Z,18.79
2022-08-20T18:37:22.750Z,18.78
2022-08-20T18:39:51.347Z,18.77
2022-08-20T18:42:29.566Z,18.77
2022-08-20T18:44:58.315Z,18.74
2022-08-20T18:47:29.954Z,18.77
2022-08-20T18:50:15.729Z,18.76
2022-08-20T18:52:48.177Z,18.74
2022-08-20T18:55:29.458Z,18.77
2022-08-20T18:57:59.987Z,18.77
2022-08-20T19:00:39.591Z,18.72
2022-08-20T19:03:18.577Z,18.74
2022-08-20T19:06:11.410Z,18.72
2022-08-20T19:08:48.347Z,18.68
2022-08-20T19:11:31.537Z,18.65
2022-08-20T19:14:46.234Z,18.55
2022-08-20T19:17:19.323Z,18.60
2022-08-20T19:19:58.757Z,18.62
2022-08-20T19:22:28.528Z,18.60
2022-08-20T19:24:58.754Z,18.61
2022-08-20T19:27:27.155Z,18.61
2022-08-20T19:29:57.729Z,18.62
2022-08-20T19:32:27.797Z,18.60
2022-08-20T19:34:57.420Z,18.56
2022-08-20T19:37:39.734Z,18.58
2022-08-20T19:40:27.621Z,18.56
2022-08-20T19:42:58.248Z,18.57
2022-08-20T19:45:30.982Z,18.54
2022-08-20T19:48:10.444Z,18.54
2022-08-20T19:50:43.448Z,18.55
2022-08-20T19:53:26.441Z,18.55
2022-08-20T19:56:01.908Z,18.53
2022-08-20T19:58:31.489Z,18.56
2022-08-20T20:00:59.814Z,18.53
2022-08-20T20:03:29.992Z,18.54
2022-08-20T20:06:02.378Z,18.55
2022-08-20T20:08:39.429Z,18.55
2022-08-20T20:11:09.096Z,18.54
2022-08-20T20:13:39.593Z,18.53
2022-08-20T20:16:08.293Z,18.50
2022-08-20T20:18:39.905Z,18.53
2022-08-20T20:21:13.991Z,18.52
2022-08-20T20:23:52.255Z,18.53
2022-08-20T20:26:20.929Z,18.54
2022-08-20T20:28:52.888Z,18.50
2022-08-20T20:31:23.585Z,18.52
2022-08-20T20:33:53.615Z,18.49
2022-08-20T20:36:36.401Z,18.42
2022-08-20T20:39:12.408Z,18.44
2022-08-20T20:41:52.364Z,18.48
2022-08-20T20:44:23.233Z,18.51
2022-08-20T20:46:54.161Z,18.51
2022-08-20T20:49:24.927Z,18.53
2022-08-20T20:51:55.315Z,18.54
2022-08-20T20:54:28.633Z,18.54
2022-08-20T20:57:04.858Z,18.54
2022-08-20T20:59:35.302Z,18.54
2022-08-20T21:02:04.021Z,18.52
2022-08-20T21:04:32.423Z,18.54
2022-08-20T21:07:07.329Z,18.55
2022-08-20T21:09:37.480Z,18.54
2022-08-20T21:12:06.377Z,18.55
2022-08-20T21:14:34.512Z,18.55
2022-08-20T21:17:04.895Z,18.54
2022-08-20T21:19:33.232Z,18.54
2022-08-20T21:22:01.513Z,18.51
2022-08-20T21:24:29.550Z,18.49
2022-08-20T21:27:01.542Z,18.50
2022-08-20T21:29:32.783Z,18.51
2022-08-20T21:32:01.339Z,18.51
2022-08-20T21:34:29.421Z,18.52
2022-08-20T21:36:57.526Z,18.51
2022-08-20T21:39:27.352Z,18.49
2022-08-20T21:41:55.843Z,18.38
2022-08-20T21:44:27.860Z,18.39
2022-08-20T21:46:58.193Z,18.37
2022-08-20T21:49:27.518Z,18.31
2022-08-20T21:51:55.647Z,18.31
2022-08-20T21:54:24.421Z,18.24
2022-08-20T21:56:55.230Z,18.15
2022-08-20T21:59:25.881Z,18.16
2022-08-20T22:01:54.163Z,18.19
2022-08-20T22:04:22.678Z,18.20
2022-08-20T22:06:51.120Z,18.20
2022-08-20T22:09:19.139Z,18.27
2022-08-20T22:11:52.047Z,18.29
2022-08-20T22:14:22.617Z,18.26
2022-08-20T22:16:51.964Z,18.30
2022-08-20T22:19:20.114Z,18.33
2022-08-20T22:21:49.459Z,18.30
2022-08-20T22:24:17.432Z,18.33
2022-08-20T22:26:45.534Z,18.35
2022-08-20T22:29:13.670Z,18.34
2022-08-20T22:31:44.070Z,18.36
2022-08-20T22:34:15.537Z,18.36
2022-08-20T22:36:43.933Z,18.36
2022-08-20T22:39:11.947Z,18.32
2022-08-20T22:41:40.395Z,18.23
2022-08-20T22:44:08.486Z,18.27
2022-08-20T22:46:43.661Z,18.31
2022-08-20T22:49:19.102Z,18.32
2022-08-20T22:51:47.135Z,18.28
2022-08-20T22:54:19.290Z,18.33
2022-08-20T22:56:47.341Z,18.25
2022-08-20T22:59:16.320Z,18.25
2022-08-20T23:01:45.571Z,18.22
2022-08-20T23:04:20.927Z,18.24
2022-08-20T23:06:49.110Z,18.29
2022-08-20T23:09:21.008Z,18.34
2022-08-20T23:11:49.357Z,18.30
2022-08-20T23:14:17.346Z,18.29
2022-08-20T23:16:47.461Z,18.32
2022-08-20T23:19:24.573Z,18.34
2022-08-20T23:21:53.121Z,18.34
2022-08-20T23:24:21.212Z,18.27
2022-08-20T23:26:53.325Z,18.30
2022-08-20T23:29:25.481Z,18.22
2022-08-20T23:31:55.122Z,18.22
2022-08-20T23:34:24.621Z,18.28
2022-08-20T23:36:52.785Z,18.24
2022-08-20T23:39:21.271Z,18.25
2022-08-20T23:41:49.255Z,18.21
2022-08-20T23:44:26.598Z,18.14
2022-08-20T23:46:56.236Z,18.19
2022-08-20T23:49:25.835Z,18.22
2022-08-20T23:51:53.910Z,18.18
2022-08-20T23:54:22.119Z,18.15
2022-08-20T23:56:50.437Z,18.20
2022-08-20T23:59:18.695Z,18.18
